Time;durP1;ratioP1;P1;durP2;ratioP2;P2;SDS_P1;SDS_P2;PMS_P1;PMS_P2;Temp;Humidity;BMP_temperature;BMP_pressure;BME280_temperature;BME280_humidity;BME280_pressure;Samples;Min_cycle;Max_cycle;Signal;HPM_P1;HPM_P2
2021/04/09 00:02:20;;;;;;;2.50;1.83;;;15.00;53.80;;;;;;5125823;28;20435;-42
2021/04/09 00:04:50;;;;;;;1.70;1.60;;;15.00;54.50;;;;;;5126145;28;20461;-42
2021/04/09 00:07:20;;;;;;;2.57;2.30;;;14.90;53.70;;;;;;5125468;28;20502;-42
2021/04/09 00:09:50;;;;;;;4.10;2.50;;;14.80;54.00;;;;;;5125622;28;20477;-42
2021/04/09 00:12:20;;;;;;;2.80;1.80;;;14.80;54.10;;;;;;5124763;28;20458;-44
2021/04/09 00:14:50;;;;;;;2.50;2.00;;;14.80;57.60;;;;;;5124847;28;20572;-42
2021/04/09 00:17:21;;;;;;;2.23;1.60;;;14.90;57.00;;;;;;5125055;28;20447;-42
2021/04/09 00:19:52;;;;;;;1.73;1.50;;;14.80;56.20;;;;;;5125105;28;20469;-42
2021/04/09 00:22:22;;;;;;;2.30;1.70;;;14.80;55.70;;;;;;5124445;28;20528;-39
2021/04/09 00:24:52;;;;;;;2.37;1.83;;;14.80;57.60;;;;;;5125105;28;20470;-41
2021/04/09 00:27:22;;;;;;;2.20;1.40;;;14.80;57.00;;;;;;5124578;28;20506;-40
2021/04/09 00:29:52;;;;;;;2.50;1.90;;;14.90;56.90;;;;;;5119338;28;20500;-42
2021/04/09 00:32:23;;;;;;;2.97;1.80;;;14.70;56.60;;;;;;5121725;28;20499;-40
2021/04/09 00:34:55;;;;;;;2.43;1.83;;;14.80;57.50;;;;;;5123207;28;20433;-40
2021/04/09 00:37:25;;;;;;;1.67;1.57;;;15.00;55.50;;;;;;5123125;28;20489;-41
2021/04/09 00:39:55;;;;;;;3.70;1.77;;;15.00;57.30;;;;;;5123014;28;20447;-42
2021/04/09 00:42:27;;;;;;;2.30;1.60;;;14.90;56.50;;;;;;5122615;28;20436;-42
2021/04/09 00:44:58;;;;;;;3.07;1.70;;;14.90;56.50;;;;;;5120867;28;20470;-43
2021/04/09 00:47:30;;;;;;;3.27;2.00;;;15.10;54.00;;;;;;5123274;28;21330;-40
2021/04/09 00:50:00;;;;;;;2.10;1.57;;;15.10;53.30;;;;;;5120482;28;20494;-40
2021/04/09 00:52:32;;;;;;;1.73;1.63;;;15.00;53.50;;;;;;5122960;28;20494;-41
2021/04/09 00:55:03;;;;;;;2.20;1.73;;;14.60;55.80;;;;;;5121315;28;20447;-40
2021/04/09 00:57:34;;;;;;;3.23;1.60;;;14.50;55.00;;;;;;5122269;28;20447;-42
2021/04/09 01:00:06;;;;;;;2.03;1.50;;;14.30;58.40;;;;;;5123324;28;20447;-42
2021/04/09 01:02:38;;;;;;;1.50;1.40;;;14.30;58.50;;;;;;5123106;27;20842;-39
2021/04/09 01:05:10;;;;;;;2.57;1.50;;;14.20;58.50;;;;;;5123891;28;20479;-41
2021/04/09 01:07:41;;;;;;;2.83;1.77;;;14.10;59.00;;;;;;5123932;28;20457;-41
2021/04/09 01:10:13;;;;;;;1.87;1.33;;;14.10;59.70;;;;;;5123243;28;20473;-42
2021/04/09 01:12:43;;;;;;;3.70;1.43;;;14.10;58.10;;;;;;5122584;28;20897;-40
2021/04/09 01:15:14;;;;;;;1.50;1.40;;;13.90;56.70;;;;;;5123828;28;20443;-40
2021/04/09 01:17:51;;;;;;;2.33;1.80;;;13.90;58.80;;;;;;5123742;28;20457;-41
2021/04/09 01:20:43;;;;;;;3.33;1.97;;;13.90;60.30;;;;;;5123781;28;20458;-41
2021/04/09 01:23:28;;;;;;;1.80;1.70;;;13.80;59.50;;;;;;5116011;28;20456;-40
2021/04/09 01:26:26;;;;;;;4.07;1.97;;;13.70;60.80;;;;;;5122975;28;20472;-41
2021/04/09 01:29:19;;;;;;;3.77;1.67;;;13.70;61.70;;;;;;5124023;28;20474;-41
2021/04/09 01:31:53;;;;;;;2.77;1.70;;;13.70;60.20;;;;;;5122659;28;20485;-40
2021/04/09 01:34:26;;;;;;;2.23;2.00;;;13.70;60.90;;;;;;5123533;28;20457;-40
2021/04/09 01:37:02;;;;;;;2.97;1.97;;;13.70;60.80;;;;;;5123009;28;20438;-41
2021/04/09 01:39:35;;;;;;;4.47;1.83;;;13.60;61.60;;;;;;5123848;28;20441;-41
2021/04/09 01:42:07;;;;;;;2.83;1.60;;;13.60;58.90;;;;;;5121710;28;20483;-41
2021/04/09 01:44:43;;;;;;;1.97;1.60;;;13.60;61.50;;;;;;5123387;28;20477;-41
2021/04/09 01:47:15;;;;;;;2.47;1.70;;;13.50;61.50;;;;;;5122025;28;20453;-41
2021/04/09 01:49:48;;;;;;;2.43;2.23;;;13.50;64.30;;;;;;5122088;28;20515;-41
2021/04/09 01:52:19;;;;;;;3.73;1.87;;;13.50;63.40;;;;;;5121734;28;20431;-41
2021/04/09 01:54:53;;;;;;;2.80;2.23;;;13.30;63.90;;;;;;5122727;28;20529;-41
2021/04/09 01:57:24;;;;;;;2.50;1.93;;;13.50;60.20;;;;;;5122108;28;20534;-41
2021/04/09 01:59:55;;;;;;;3.97;2.00;;;13.40;60.70;;;;;;5122960;28;20863;-41
2021/04/09 02:02:27;;;;;;;4.90;1.87;;;13.30;59.10;;;;;;5121711;28;20932;-38
2021/04/09 02:04:58;;;;;;;2.47;1.77;;;13.30;60.00;;;;;;5122813;28;20524;-38
2021/04/09 02:07:31;;;;;;;2.80;1.60;;;13.20;62.60;;;;;;5122960;28;20983;-41
2021/04/09 02:10:02;;;;;;;1.97;1.67;;;13.10;62.10;;;;;;5120455;28;20470;-39
2021/04/09 02:12:33;;;;;;;2.47;1.90;;;13.00;61.90;;;;;;5120290;28;20516;-40
2021/04/09 02:15:04;;;;;;;2.60;1.50;;;13.00;60.90;;;;;;5126451;28;20510;-38
2021/04/09 02:17:36;;;;;;;1.80;1.70;;;13.00;62.30;;;;;;5127372;28;20450;-39
2021/04/09 02:20:10;;;;;;;2.47;2.10;;;13.00;60.10;;;;;;5127111;28;20464;-40
2021/04/09 02:22:41;;;;;;;1.80;1.70;;;13.00;62.70;;;;;;5126940;28;20468;-40
2021/04/09 02:25:12;;;;;;;3.97;1.80;;;12.90;62.40;;;;;;5127729;28;20502;-40
2021/04/09 02:27:45;;;;;;;2.00;1.60;;;12.80;63.70;;;;;;5126594;28;20449;-40
2021/04/09 02:30:18;;;;;;;1.83;1.70;;;12.90;63.20;;;;;;5126962;28;20470;-42
2021/04/09 02:32:49;;;;;;;3.90;2.40;;;12.80;64.70;;;;;;5127044;28;20456;-40
2021/04/09 02:35:21;;;;;;;3.07;2.77;;;12.80;64.60;;;;;;5127572;28;20509;-40
2021/04/09 02:37:53;;;;;;;2.77;2.50;;;12.70;63.50;;;;;;5126128;28;20441;-40
2021/04/09 02:40:27;;;;;;;2.73;2.43;;;12.60;65.40;;;;;;5127243;28;20521;-40
2021/04/09 02:42:57;;;;;;;4.33;3.90;;;12.60;66.00;;;;;;5125780;28;20445;-40
2021/04/09 02:45:28;;;;;;;5.47;2.80;;;12.60;64.40;;;;;;5125108;28;20489;-39
2021/04/09 02:48:01;;;;;;;3.20;2.47;;;12.60;65.00;;;;;;5126349;28;20446;-40
2021/04/09 02:50:33;;;;;;;3.57;2.47;;;12.50;67.70;;;;;;5126824;28;20480;-40
2021/04/09 02:53:08;;;;;;;3.00;2.63;;;12.50;64.90;;;;;;5126132;28;20433;-40
2021/04/09 02:55:42;;;;;;;5.03;2.53;;;12.50;65.00;;;;;;5127101;28;20433;-40
2021/04/09 02:58:14;;;;;;;3.03;2.10;;;12.40;65.50;;;;;;5125470;28;20470;-41
2021/04/09 03:00:46;;;;;;;3.60;2.37;;;12.30;67.20;;;;;;5125282;28;20464;-40
2021/04/09 03:03:18;;;;;;;3.13;2.50;;;12.20;67.30;;;;;;5112276;28;20532;-41
2021/04/09 03:05:50;;;;;;;5.70;2.93;;;12.10;67.40;;;;;;5126921;28;20449;-42
2021/04/09 03:08:21;;;;;;;2.90;2.50;;;12.10;66.80;;;;;;5126319;28;20463;-41
2021/04/09 03:10:52;;;;;;;3.87;2.10;;;11.90;68.40;;;;;;5126275;28;20555;-42
2021/04/09 03:13:22;;;;;;;4.20;2.17;;;11.90;66.80;;;;;;5123092;28;20445;-41
2021/04/09 03:15:56;;;;;;;4.17;2.33;;;11.90;67.80;;;;;;5125608;28;20483;-41
2021/04/09 03:18:29;;;;;;;3.30;2.53;;;11.80;68.20;;;;;;5126104;28;20514;-42
2021/04/09 03:20:59;;;;;;;2.40;2.20;;;11.70;72.90;;;;;;5109811;28;20453;-43
2021/04/09 03:23:29;;;;;;;2.50;2.30;;;11.70;73.90;;;;;;5126268;28;20445;-42
2021/04/09 03:26:00;;;;;;;2.00;1.70;;;11.60;74.30;;;;;;5122759;28;20453;-41
2021/04/09 03:28:30;;;;;;;2.27;1.73;;;11.50;69.90;;;;;;5116229;28;20454;-42
2021/04/09 03:31:00;;;;;;;2.88;2.17;;;11.20;72.60;;;;;;5125925;28;20481;-42
2021/04/09 03:33:33;;;;;;;2.53;1.63;;;11.10;72.80;;;;;;5122127;28;20232;-39
2021/04/09 03:36:03;;;;;;;4.60;1.80;;;10.90;73.20;;;;;;5124904;28;20231;-41
2021/04/09 03:38:33;;;;;;;2.88;2.08;;;10.80;73.60;;;;;;5125928;28;20514;-40
2021/04/09 03:41:03;;;;;;;3.45;2.15;;;10.60;74.60;;;;;;5125117;28;20206;-40
2021/04/09 03:43:33;;;;;;;3.80;2.20;;;10.50;75.10;;;;;;5123895;28;20196;-40
2021/04/09 03:46:04;;;;;;;6.38;1.85;;;10.40;77.80;;;;;;5125079;28;20220;-38
2021/04/09 03:48:35;;;;;;;2.78;1.88;;;10.30;77.30;;;;;;5125449;28;20229;-40
2021/04/09 03:51:06;;;;;;;4.13;1.70;;;10.20;76.90;;;;;;5125183;28;20221;-40
2021/04/09 03:53:36;;;;;;;8.45;1.80;;;10.10;77.30;;;;;;5121674;28;20199;-40
2021/04/09 03:56:06;;;;;;;2.80;1.80;;;10.00;78.70;;;;;;5125658;28;20197;-40
2021/04/09 03:58:36;;;;;;;3.35;1.50;;;9.90;80.50;;;;;;5119310;28;20215;-41
2021/04/09 04:01:06;;;;;;;2.90;1.70;;;9.80;81.60;;;;;;5124989;28;20199;-40
2021/04/09 04:03:37;;;;;;;3.70;1.90;;;9.70;82.80;;;;;;5122760;28;20200;-40
2021/04/09 04:06:07;;;;;;;4.07;1.27;;;9.70;83.10;;;;;;5124352;28;20199;-41
2021/04/09 04:08:37;;;;;;;5.18;1.98;;;9.60;81.90;;;;;;5125177;28;20203;-40
2021/04/09 04:11:07;;;;;;;4.13;1.70;;;9.60;82.50;;;;;;5124069;28;20235;-37
2021/04/09 04:13:38;;;;;;;4.32;1.60;;;9.50;83.40;;;;;;5108063;28;20228;-41
2021/04/09 04:16:08;;;;;;;4.35;1.60;;;9.50;82.70;;;;;;5124549;28;20204;-38
2021/04/09 04:18:39;;;;;;;3.10;1.83;;;9.50;82.50;;;;;;5124042;28;20264;-41
2021/04/09 04:21:10;;;;;;;3.20;2.00;;;9.50;82.80;;;;;;5123072;28;20192;-40
2021/04/09 04:23:40;;;;;;;4.80;1.88;;;9.50;82.60;;;;;;5124174;28;20208;-39
2021/04/09 04:26:10;;;;;;;2.78;2.03;;;9.40;83.00;;;;;;5116493;28;20215;-41
2021/04/09 04:28:40;;;;;;;4.78;1.92;;;9.50;82.60;;;;;;5123788;28;20195;-41
2021/04/09 04:31:10;;;;;;;2.15;1.23;;;9.40;83.50;;;;;;5123997;28;20239;-39
2021/04/09 04:33:41;;;;;;;2.58;1.90;;;9.40;84.40;;;;;;5123329;28;20210;-42
2021/04/09 04:36:11;;;;;;;3.35;2.08;;;9.40;84.50;;;;;;5122744;28;20189;-39
2021/04/09 04:38:41;;;;;;;2.65;1.77;;;9.50;85.40;;;;;;5121919;28;20200;-40
2021/04/09 04:41:11;;;;;;;3.13;1.95;;;9.40;85.00;;;;;;5122672;28;20273;-41
2021/04/09 04:43:41;;;;;;;3.47;1.95;;;9.40;85.70;;;;;;5122790;28;20200;-41
2021/04/09 04:46:12;;;;;;;3.30;1.83;;;9.40;85.20;;;;;;5122176;28;20210;-41
2021/04/09 04:48:44;;;;;;;4.22;1.90;;;9.30;85.60;;;;;;5123200;28;20196;-39
2021/04/09 04:51:14;;;;;;;4.35;2.15;;;9.30;85.40;;;;;;5119441;28;20226;-41
2021/04/09 04:53:44;;;;;;;2.40;1.98;;;9.20;86.90;;;;;;5131972;27;20630;-39
2021/04/09 04:56:14;;;;;;;4.70;2.15;;;9.20;86.60;;;;;;5124062;28;20281;-40
2021/04/09 04:58:44;;;;;;;2.20;1.75;;;9.10;86.90;;;;;;5123876;28;20199;-40
2021/04/09 05:01:14;;;;;;;1.75;1.55;;;9.00;88.30;;;;;;5124223;28;20287;-41
2021/04/09 05:03:45;;;;;;;4.00;2.15;;;9.00;89.10;;;;;;5124099;28;20207;-40
2021/04/09 05:06:16;;;;;;;5.82;2.47;;;8.90;89.10;;;;;;5122746;28;20273;-38
2021/04/09 05:08:46;;;;;;;2.08;1.88;;;8.80;89.90;;;;;;5123581;28;20208;-40
2021/04/09 05:11:18;;;;;;;3.90;2.33;;;8.70;90.50;;;;;;5121557;28;20687;-37
2021/04/09 05:13:48;;;;;;;4.78;1.73;;;8.70;90.10;;;;;;5123596;28;20200;-39
2021/04/09 05:16:18;;;;;;;3.33;2.10;;;8.60;90.60;;;;;;5123663;28;20223;-40
2021/04/09 05:18:49;;;;;;;4.80;2.05;;;8.60;91.10;;;;;;5123448;28;20226;-39
2021/04/09 05:21:20;;;;;;;3.60;2.10;;;8.50;91.30;;;;;;5123103;28;20212;-39
2021/04/09 05:23:50;;;;;;;3.20;1.90;;;8.50;91.80;;;;;;5123742;28;20661;-39
2021/04/09 05:26:20;;;;;;;2.80;2.20;;;8.40;92.00;;;;;;5122335;28;20211;-40
2021/04/09 05:28:50;;;;;;;4.50;2.45;;;8.40;92.40;;;;;;5123502;28;20200;-41
2021/04/09 05:31:20;;;;;;;5.50;2.03;;;8.30;93.30;;;;;;5122631;28;20296;-35
2021/04/09 05:33:51;;;;;;;5.50;2.45;;;8.20;93.30;;;;;;5117611;28;20214;-38
2021/04/09 05:36:21;;;;;;;5.13;1.95;;;8.20;93.60;;;;;;5123043;28;20249;-38
2021/04/09 05:38:51;;;;;;;4.40;2.63;;;8.10;94.20;;;;;;5123328;28;20564;-39
2021/04/09 05:41:21;;;;;;;10.20;2.80;;;8.00;94.50;;;;;;5122014;28;20203;-41
2021/04/09 05:43:52;;;;;;;3.90;2.60;;;8.00;95.10;;;;;;5122964;28;20677;-41
2021/04/09 05:46:22;;;;;;;8.05;3.58;;;7.90;95.10;;;;;;5122719;28;20233;-41
2021/04/09 05:48:54;;;;;;;5.43;2.03;;;7.90;95.50;;;;;;5122726;28;20230;-41
2021/04/09 05:51:25;;;;;;;4.07;2.42;;;7.80;94.60;;;;;;5122450;28;20232;-37
2021/04/09 05:53:55;;;;;;;3.03;2.40;;;7.80;95.50;;;;;;5123326;28;20272;-40
2021/04/09 05:56:25;;;;;;;5.38;1.80;;;7.80;95.70;;;;;;5121623;28;20219;-40
2021/04/09 05:58:55;;;;;;;4.35;2.13;;;7.60;95.40;;;;;;5123126;28;20259;-40
2021/04/09 06:01:26;;;;;;;1.95;1.80;;;7.60;95.90;;;;;;5122715;28;20188;-40
2021/04/09 06:03:59;;;;;;;4.60;2.25;;;7.60;95.80;;;;;;5109075;28;20200;-38
2021/04/09 06:06:29;;;;;;;3.55;2.03;;;7.60;96.70;;;;;;5121997;28;20192;-40
2021/04/09 06:08:59;;;;;;;4.75;1.90;;;7.50;97.10;;;;;;5122445;28;20204;-40
2021/04/09 06:11:30;;;;;;;6.80;2.13;;;7.60;96.70;;;;;;5121591;28;20227;-40
2021/04/09 06:14:00;;;;;;;3.80;2.40;;;7.50;97.60;;;;;;5122885;28;20211;-40
2021/04/09 06:16:30;;;;;;;2.50;2.00;;;7.40;97.90;;;;;;5122013;28;20191;-40
2021/04/09 06:19:02;;;;;;;5.38;2.42;;;7.40;97.90;;;;;;5123123;28;20287;-40
2021/04/09 06:21:32;;;;;;;4.18;2.20;;;7.40;98.50;;;;;;5122764;28;20587;-40
2021/04/09 06:24:02;;;;;;;4.93;2.08;;;7.40;98.20;;;;;;5122540;28;20200;-38
2021/04/09 06:26:34;;;;;;;2.47;2.10;;;7.30;99.00;;;;;;5121647;28;20188;-40
2021/04/09 06:29:04;;;;;;;4.25;2.03;;;7.30;99.70;;;;;;5123191;28;20188;-40
2021/04/09 06:31:34;;;;;;;4.55;2.47;;;7.30;99.80;;;;;;5122654;28;20243;-40
2021/04/09 06:34:05;;;;;;;2.88;1.92;;;7.20;99.90;;;;;;5122593;28;20207;-40
2021/04/09 06:36:35;;;;;;;4.03;2.22;;;7.20;99.90;;;;;;5122036;28;20218;-39
2021/04/09 06:39:06;;;;;;;4.75;2.60;;;7.10;99.90;;;;;;5123423;28;20569;-40
2021/04/09 06:41:36;;;;;;;2.08;1.80;;;7.00;99.90;;;;;;5122050;28;20241;-40
2021/04/09 06:44:08;;;;;;;3.50;1.80;;;7.00;99.90;;;;;;5122382;28;20284;-38
2021/04/09 06:46:40;;;;;;;2.80;1.90;;;7.00;99.90;;;;;;5121612;28;20204;-40
2021/04/09 06:49:12;;;;;;;2.47;1.90;;;7.00;99.90;;;;;;5122106;28;20292;-38
2021/04/09 06:51:46;;;;;;;2.95;2.30;;;7.00;99.90;;;;;;5122099;28;20227;-39
2021/04/09 06:54:18;;;;;;;2.35;1.60;;;6.90;99.90;;;;;;5122064;28;20244;-40
2021/04/09 06:56:48;;;;;;;4.93;2.20;;;6.90;99.90;;;;;;5122184;28;20257;-40
2021/04/09 06:59:24;;;;;;;4.13;1.95;;;6.90;99.90;;;;;;5122477;28;20225;-38
2021/04/09 07:01:55;;;;;;;3.22;1.52;;;6.80;99.90;;;;;;5125512;28;20203;-39
2021/04/09 07:04:27;;;;;;;2.85;1.77;;;6.80;99.90;;;;;;5117542;28;20206;-39
2021/04/09 07:06:57;;;;;;;3.03;1.55;;;6.80;99.90;;;;;;5125342;28;20192;-39
2021/04/09 07:09:27;;;;;;;5.57;1.60;;;6.80;99.90;;;;;;5126483;28;20195;-39
2021/04/09 07:11:57;;;;;;;2.80;1.65;;;6.90;99.90;;;;;;5125683;28;20212;-40
2021/04/09 07:14:48;;;;;;;3.42;1.70;;;6.80;99.90;;;;;;5126096;28;20196;-36
2021/04/09 07:17:29;;;;;;;4.07;1.70;;;6.70;99.90;;;;;;5118087;28;20192;-37
2021/04/09 07:20:15;;;;;;;8.40;2.88;;;6.60;99.90;;;;;;5125959;28;20227;-39
2021/04/09 07:22:46;;;;;;;1.75;1.50;;;6.60;99.90;;;;;;5126222;28;20609;-40
2021/04/09 07:25:17;;;;;;;2.88;1.90;;;6.60;99.90;;;;;;5125897;28;20234;-39
2021/04/09 07:27:49;;;;;;;1.40;1.30;;;6.60;99.90;;;;;;5125297;28;20661;-39
2021/04/09 07:30:27;;;;;;;3.38;1.73;;;6.60;99.90;;;;;;5126880;28;20245;-39
2021/04/09 07:33:04;;;;;;;5.25;1.80;;;6.50;99.90;;;;;;5126037;28;20219;-38
2021/04/09 07:35:47;;;;;;;2.47;2.28;;;6.50;99.90;;;;;;5125282;28;20192;-39
2021/04/09 07:38:24;;;;;;;2.15;1.80;;;6.40;99.90;;;;;;5125113;28;20191;-36
2021/04/09 07:40:56;;;;;;;3.13;1.80;;;6.40;99.90;;;;;;5125829;28;20229;-40
2021/04/09 07:43:29;;;;;;;3.00;1.52;;;6.30;99.90;;;;;;5125120;28;20235;-38
2021/04/09 07:46:04;;;;;;;3.30;1.77;;;6.30;99.90;;;;;;5125064;28;20220;-39
2021/04/09 07:48:35;;;;;;;4.05;1.90;;;6.30;99.90;;;;;;5125168;28;20199;-37
2021/04/09 07:51:09;;;;;;;8.93;2.08;;;6.20;99.90;;;;;;5125652;28;20247;-39
2021/04/09 07:53:45;;;;;;;4.05;1.90;;;6.20;99.90;;;;;;5125749;28;20191;-39
2021/04/09 07:56:17;;;;;;;3.08;1.70;;;6.10;99.90;;;;;;5124636;28;20199;-39
2021/04/09 07:58:57;;;;;;;2.88;1.60;;;6.10;99.90;;;;;;5125326;28;20222;-39
2021/04/09 08:01:27;;;;;;;3.38;1.50;;;6.10;99.90;;;;;;5124918;28;20269;-36
2021/04/09 08:03:57;;;;;;;2.33;1.40;;;6.10;99.90;;;;;;5125909;28;20264;-39
2021/04/09 08:06:37;;;;;;;4.80;1.92;;;6.00;99.90;;;;;;5124664;28;20218;-41
2021/04/09 08:09:08;;;;;;;3.88;1.88;;;6.10;99.90;;;;;;5125143;28;20268;-38
2021/04/09 08:11:39;;;;;;;3.08;2.17;;;6.10;99.90;;;;;;5122999;28;20552;-36
2021/04/09 08:14:10;;;;;;;2.45;1.40;;;5.90;99.90;;;;;;5125143;28;20200;-40
2021/04/09 08:16:42;;;;;;;3.58;1.75;;;6.00;99.90;;;;;;5123697;28;20759;-41
2021/04/09 08:19:15;;;;;;;2.63;1.90;;;5.90;99.90;;;;;;5118131;28;20205;-38
2021/04/09 08:21:49;;;;;;;2.45;1.65;;;5.90;99.90;;;;;;5125090;28;20571;-38
2021/04/09 08:24:20;;;;;;;3.47;1.52;;;5.90;99.90;;;;;;5125041;28;20214;-40
2021/04/09 08:26:50;;;;;;;3.05;2.10;;;5.80;99.90;;;;;;5123526;28;20203;-40
2021/04/09 08:29:21;;;;;;;5.85;2.13;;;5.70;99.90;;;;;;5125096;28;20199;-39
2021/04/09 08:31:52;;;;;;;3.55;1.63;;;5.60;99.90;;;;;;5124599;28;20220;-37
2021/04/09 08:34:22;;;;;;;2.55;1.67;;;5.60;99.90;;;;;;5125493;28;20252;-40
2021/04/09 08:36:54;;;;;;;4.55;2.03;;;5.60;99.90;;;;;;5124867;28;20208;-39
2021/04/09 08:39:43;;;;;;;5.00;3.40;;;5.50;99.90;;;;;;5124614;28;20227;-40
2021/04/09 08:42:13;;;;;;;5.72;2.05;;;5.40;99.90;;;;;;5123746;28;20200;-38
2021/04/09 08:44:45;;;;;;;2.35;1.73;;;5.30;99.90;;;;;;5124839;28;20227;-39
2021/04/09 08:47:18;;;;;;;2.55;1.80;;;5.30;99.90;;;;;;5123650;28;20208;-40
2021/04/09 08:49:48;;;;;;;3.95;2.10;;;5.30;99.90;;;;;;5124975;28;20196;-38
2021/04/09 08:52:22;;;;;;;7.43;1.98;;;5.30;99.90;;;;;;5123981;28;20238;-40
2021/04/09 08:54:53;;;;;;;3.25;1.60;;;5.20;99.90;;;;;;5124294;28;20192;-40
2021/04/09 08:57:31;;;;;;;5.07;2.65;;;5.10;99.90;;;;;;5123523;28;20257;-39
2021/04/09 09:00:08;;;;;;;2.17;1.85;;;5.20;99.90;;;;;;5124487;28;20277;-39
2021/04/09 09:02:43;;;;;;;2.85;1.80;;;5.20;99.90;;;;;;5123638;28;20214;-38
2021/04/09 09:05:15;;;;;;;4.75;1.92;;;5.10;99.90;;;;;;5123910;28;20207;-39
2021/04/09 09:08:00;;;;;;;3.95;2.70;;;5.00;99.90;;;;;;5124204;28;20221;-40
2021/04/09 09:10:57;;;;;;;2.83;2.35;;;5.00;99.90;;;;;;5122130;28;20200;-40
2021/04/09 09:13:32;;;;;;;3.95;1.90;;;4.90;99.90;;;;;;5123311;28;20682;-39
2021/04/09 09:16:19;;;;;;;6.45;2.63;;;4.90;99.90;;;;;;5122427;28;20195;-38
2021/04/09 09:18:56;;;;;;;4.50;1.60;;;4.80;99.90;;;;;;5123377;28;20199;-40
2021/04/09 09:21:35;;;;;;;3.85;1.70;;;4.70;99.90;;;;;;5122954;28;20229;-39
2021/04/09 09:24:19;;;;;;;4.68;1.95;;;4.60;99.90;;;;;;5123230;28;20195;-38
2021/04/09 09:26:50;;;;;;;3.55;2.00;;;4.70;99.90;;;;;;5121525;28;20199;-37
2021/04/09 09:29:22;;;;;;;3.75;1.90;;;4.70;99.90;;;;;;5123739;28;20207;-39
2021/04/09 09:32:05;;;;;;;3.42;2.38;;;4.70;99.90;;;;;;5123131;28;20235;-37
2021/04/09 09:34:38;;;;;;;3.90;2.03;;;4.70;99.90;;;;;;5124187;28;20234;-40
2021/04/09 09:37:11;;;;;;;3.22;2.00;;;4.60;99.90;;;;;;5122607;28;20208;-39
2021/04/09 09:39:51;;;;;;;3.33;2.33;;;4.50;99.90;;;;;;5123356;28;20204;-38
2021/04/09 09:42:43;;;;;;;2.47;1.75;;;4.50;99.90;;;;;;5115203;28;20199;-36
2021/04/09 09:45:33;;;;;;;3.67;2.05;;;4.50;99.90;;;;;;5114436;28;20228;-36
2021/04/09 09:48:16;;;;;;;3.75;1.90;;;4.40;99.90;;;;;;5122550;28;20196;-38
2021/04/09 09:50:46;;;;;;;2.78;2.25;;;4.40;99.90;;;;;;5123754;28;20203;-39
2021/04/09 09:53:16;;;;;;;3.15;1.95;;;4.40;99.90;;;;;;5123537;28;20215;-38
2021/04/09 09:55:49;;;;;;;2.67;2.13;;;4.30;99.90;;;;;;5123523;28;20249;-39
2021/04/09 09:58:22;;;;;;;2.65;1.90;;;4.30;99.90;;;;;;5122052;28;20272;-36
2021/04/09 10:00:55;;;;;;;3.80;1.92;;;4.20;99.90;;;;;;5122721;28;20229;-33
2021/04/09 10:03:28;;;;;;;2.40;2.10;;;4.20;99.90;;;;;;5122356;28;20210;-39
2021/04/09 10:06:02;;;;;;;6.38;2.40;;;4.10;99.90;;;;;;5123404;28;20196;-36
2021/04/09 10:08:52;;;;;;;6.85;3.00;;;4.00;99.90;;;;;;5122874;28;20228;-40
2021/04/09 10:11:24;;;;;;;7.95;2.83;;;4.00;99.90;;;;;;5122251;28;20238;-37
2021/04/09 10:13:55;;;;;;;3.55;2.42;;;4.00;99.90;;;;;;5122999;28;20256;-39
2021/04/09 10:16:26;;;;;;;8.63;4.53;;;4.10;99.90;;;;;;5120869;28;20314;-36
2021/04/09 10:18:59;;;;;;;3.70;2.05;;;4.10;99.90;;;;;;5122457;28;20264;-36
2021/04/09 10:21:31;;;;;;;4.70;2.40;;;4.10;99.90;;;;;;5122304;28;20221;-37
2021/04/09 10:24:06;;;;;;;5.45;3.88;;;4.10;99.90;;;;;;5108870;28;20184;-39
2021/04/09 10:26:38;;;;;;;4.75;2.40;;;4.00;99.90;;;;;;5122512;28;20195;-39
2021/04/09 10:29:25;;;;;;;3.67;2.70;;;3.90;99.90;;;;;;5123069;28;20211;-40
2021/04/09 10:31:56;;;;;;;3.67;2.00;;;3.80;99.90;;;;;;5105803;28;20283;-39
2021/04/09 10:34:29;;;;;;;4.85;2.15;;;3.80;99.90;;;;;;5122167;28;20676;-39
2021/04/09 10:37:00;;;;;;;6.00;2.75;;;3.70;99.90;;;;;;5125613;28;20214;-39
2021/04/09 10:39:30;;;;;;;6.18;2.53;;;3.70;99.90;;;;;;5127380;28;20192;-38
2021/04/09 10:42:03;;;;;;;3.22;2.47;;;3.70;99.90;;;;;;5126316;28;20301;-38
2021/04/09 10:44:33;;;;;;;4.22;2.20;;;3.60;99.90;;;;;;5126878;28;20224;-39
2021/04/09 10:47:05;;;;;;;2.78;1.83;;;3.60;99.90;;;;;;5125742;28;20583;-40
2021/04/09 10:49:37;;;;;;;5.47;2.25;;;3.60;99.90;;;;;;5126240;28;20378;-39
2021/04/09 10:52:09;;;;;;;6.38;2.83;;;3.50;99.90;;;;;;5126504;28;20545;-35
2021/04/09 10:54:40;;;;;;;7.40;2.30;;;3.60;99.90;;;;;;5126935;28;20203;-38
2021/04/09 10:57:14;;;;;;;3.97;2.10;;;3.50;99.90;;;;;;5125285;28;20218;-36
2021/04/09 10:59:45;;;;;;;4.97;2.28;;;3.40;99.90;;;;;;5126111;28;20210;-36
2021/04/09 11:02:23;;;;;;;2.72;1.95;;;3.40;99.90;;;;;;5125985;28;20196;-36
2021/04/09 11:04:56;;;;;;;2.85;2.35;;;3.30;99.90;;;;;;5125546;28;20227;-39
2021/04/09 11:07:42;;;;;;;3.60;2.42;;;3.30;99.90;;;;;;5125269;28;20206;-41
2021/04/09 11:10:34;;;;;;;3.03;1.90;;;3.30;99.90;;;;;;5112190;28;20199;-35
2021/04/09 11:13:06;;;;;;;6.00;2.47;;;3.30;99.90;;;;;;5124918;28;20211;-38
2021/04/09 11:15:41;;;;;;;4.28;2.40;;;3.30;99.90;;;;;;5126255;28;20252;-39
2021/04/09 11:18:12;;;;;;;2.30;1.90;;;3.30;99.90;;;;;;5124842;28;20309;-38
2021/04/09 11:20:46;;;;;;;2.50;2.30;;;3.30;99.90;;;;;;5126115;28;20204;-36
2021/04/09 11:23:17;;;;;;;15.25;3.78;;;3.30;99.90;;;;;;5125363;28;20275;-37
2021/04/09 11:25:51;;;;;;;2.95;2.30;;;3.20;99.90;;;;;;5125976;28;20666;-37
2021/04/09 11:28:26;;;;;;;4.88;2.70;;;3.20;99.90;;;;;;5120733;28;20255;-37
2021/04/09 11:30:58;;;;;;;2.85;2.65;;;3.30;99.90;;;;;;5126161;28;20199;-39
2021/04/09 11:33:32;;;;;;;4.57;2.25;;;3.20;99.90;;;;;;5125995;28;20228;-36
2021/04/09 11:36:15;;;;;;;6.13;2.25;;;3.20;99.90;;;;;;5125361;28;20208;-39
2021/04/09 11:38:50;;;;;;;5.05;2.40;;;3.10;99.90;;;;;;5124309;28;20196;-38
2021/04/09 11:41:28;;;;;;;5.15;2.38;;;3.10;99.90;;;;;;5124102;28;20228;-39
2021/04/09 11:44:01;;;;;;;3.88;2.17;;;3.10;99.90;;;;;;5125531;28;20199;-37
2021/04/09 11:46:35;;;;;;;4.40;2.20;;;3.00;99.90;;;;;;5123755;28;20188;-37
2021/04/09 11:49:07;;;;;;;4.63;1.90;;;3.00;99.90;;;;;;5125139;28;20294;-38
2021/04/09 11:51:37;;;;;;;7.10;2.72;;;3.00;99.90;;;;;;5125236;28;20220;-36
2021/04/09 11:54:10;;;;;;;5.40;2.80;;;3.00;99.90;;;;;;5125059;28;20276;-36
2021/04/09 11:56:41;;;;;;;2.90;2.67;;;3.00;99.90;;;;;;5124402;28;20286;-39
2021/04/09 11:59:13;;;;;;;6.20;3.55;;;3.10;99.90;;;;;;5125328;28;20204;-39
2021/04/09 12:01:44;;;;;;;2.80;2.50;;;3.10;99.90;;;;;;5125042;28;20196;-38
2021/04/09 12:04:32;;;;;;;3.65;2.55;;;3.10;99.90;;;;;;5125596;28;20221;-40
2021/04/09 12:07:02;;;;;;;4.03;2.42;;;3.10;99.90;;;;;;5124921;28;20546;-37
2021/04/09 12:09:32;;;;;;;3.67;2.75;;;3.10;99.90;;;;;;5124066;28;20344;-40
2021/04/09 12:12:02;;;;;;;4.18;2.60;;;3.10;99.90;;;;;;5123990;28;20208;-39
2021/04/09 12:14:38;;;;;;;6.47;2.53;;;3.00;99.90;;;;;;5125090;28;20328;-38
2021/04/09 12:17:11;;;;;;;7.35;2.88;;;2.90;99.90;;;;;;5124223;28;20200;-38
2021/04/09 12:19:43;;;;;;;3.50;2.88;;;2.90;99.90;;;;;;5124786;28;20307;-38
2021/04/09 12:22:14;;;;;;;4.15;2.60;;;2.80;99.90;;;;;;5124557;28;20196;-38
2021/04/09 12:24:45;;;;;;;10.63;5.15;;;2.80;99.90;;;;;;5115385;28;20219;-37
2021/04/09 12:27:17;;;;;;;5.18;2.75;;;2.90;99.90;;;;;;5123760;28;20196;-39
2021/04/09 12:29:48;;;;;;;4.97;3.15;;;2.80;99.90;;;;;;5124646;28;20331;-39
2021/04/09 12:32:19;;;;;;;6.90;3.30;;;2.80;99.90;;;;;;5124017;28;20282;-37
2021/04/09 12:34:49;;;;;;;4.85;2.70;;;2.80;99.90;;;;;;5122029;28;20207;-38
2021/04/09 12:37:20;;;;;;;4.80;3.10;;;2.80;99.90;;;;;;5123624;28;20238;-39
2021/04/09 12:39:50;;;;;;;5.55;3.15;;;2.80;99.90;;;;;;5124328;28;20199;-38
2021/04/09 12:42:22;;;;;;;4.63;3.00;;;2.80;99.90;;;;;;5122890;28;20203;-36
2021/04/09 12:44:54;;;;;;;6.38;2.83;;;2.70;99.90;;;;;;5108339;28;20297;-38
2021/04/09 12:47:24;;;;;;;7.80;3.20;;;2.70;99.90;;;;;;5123708;28;20189;-40
2021/04/09 12:49:54;;;;;;;5.88;2.88;;;2.70;99.90;;;;;;5109643;28;20230;-40
2021/04/09 12:52:24;;;;;;;6.95;3.00;;;2.60;99.90;;;;;;5124220;28;20276;-38
2021/04/09 12:54:54;;;;;;;7.05;3.20;;;2.60;99.90;;;;;;5124591;28;20204;-37
2021/04/09 12:57:24;;;;;;;4.72;3.65;;;2.60;99.90;;;;;;5123082;28;20257;-40
2021/04/09 12:59:55;;;;;;;6.82;4.15;;;2.50;99.90;;;;;;5124125;28;20192;-38
2021/04/09 13:02:36;;;;;;;4.88;3.78;;;2.60;99.90;;;;;;5123882;28;20244;-38
2021/04/09 13:05:07;;;;;;;4.82;3.70;;;2.60;99.90;;;;;;5124387;28;20508;-40
2021/04/09 13:07:37;;;;;;;7.03;4.13;;;2.60;99.90;;;;;;5122958;28;20636;-40
2021/04/09 13:10:08;;;;;;;5.40;3.38;;;2.60;99.90;;;;;;5123251;28;20204;-37
2021/04/09 13:12:38;;;;;;;3.17;2.97;;;2.60;99.90;;;;;;5116580;28;20220;-34
2021/04/09 13:15:11;;;;;;;7.53;3.97;;;2.60;99.90;;;;;;5123587;28;20204;-41
2021/04/09 13:17:41;;;;;;;4.82;3.75;;;2.60;99.90;;;;;;5123348;28;20187;-39
2021/04/09 13:20:11;;;;;;;5.10;3.60;;;2.50;99.90;;;;;;5123799;28;20253;-37
2021/04/09 13:22:41;;;;;;;3.90;3.50;;;2.40;99.90;;;;;;5123508;28;20200;-34